createdAt,value
2022-10-23T00:00:24.634Z,49.94
2022-10-23T00:03:27.439Z,49.80
2022-10-23T00:06:30.723Z,49.68
2022-10-23T00:09:33.400Z,49.85
2022-10-23T00:12:36.122Z,49.86
2022-10-23T00:15:40.211Z,49.89
2022-10-23T00:18:42.932Z,49.90
2022-10-23T00:21:45.701Z,49.91
2022-10-23T00:24:48.345Z,50.02
2022-10-23T00:27:51.049Z,49.99
2022-10-23T00:30:55.126Z,50.00
2022-10-23T00:33:57.849Z,49.99
2022-10-23T00:37:00.537Z,50.07
2022-10-23T00:40:03.271Z,50.07
2022-10-23T00:43:06.405Z,50.05
2022-10-23T00:46:10.461Z,49.98
2022-10-23T00:49:13.687Z,49.93
2022-10-23T00:52:17.416Z,49.98
2022-10-23T00:55:21.592Z,50.00
2022-10-23T00:58:24.223Z,49.78
2022-10-23T01:01:28.407Z,49.80
2022-10-23T01:04:31.424Z,49.86
2022-10-23T01:07:37.700Z,49.99
2022-10-23T01:10:44.080Z,49.98
2022-10-23T01:13:50.835Z,50.00
2022-10-23T01:17:01.339Z,49.92
2022-10-23T01:20:12.229Z,49.83
2022-10-23T01:23:39.032Z,49.87
2022-10-23T01:26:51.650Z,49.81
2022-10-23T01:30:00.408Z,49.78
2022-10-23T01:33:06.797Z,49.72
2022-10-23T01:36:12.342Z,49.83
2022-10-23T01:39:17.420Z,49.98
2022-10-23T01:42:22.913Z,49.91
2022-10-23T01:45:29.823Z,49.88
2022-10-23T01:48:35.309Z,49.90
2022-10-23T01:51:39.753Z,49.86
2022-10-23T01:54:46.716Z,49.76
2022-10-23T01:57:50.872Z,49.84
2022-10-23T02:00:58.338Z,49.76
2022-10-23T02:04:04.320Z,49.86
2022-10-23T02:07:07.178Z,49.82
2022-10-23T02:10:10.890Z,49.81
2022-10-23T02:13:17.720Z,49.75
2022-10-23T02:16:25.164Z,49.78
2022-10-23T02:19:31.060Z,49.77
2022-10-23T02:22:36.983Z,49.70
2022-10-23T02:25:44.472Z,49.82
2022-10-23T02:28:50.787Z,49.84
2022-10-23T02:31:54.927Z,49.93
2022-10-23T02:34:57.969Z,50.03
2022-10-23T02:38:01.826Z,50.18
2022-10-23T02:41:22.268Z,50.13
2022-10-23T02:44:33.463Z,50.03
2022-10-23T02:47:42.292Z,50.05
2022-10-23T02:50:50.210Z,49.93
2022-10-23T02:57:07.290Z,49.97
2022-10-23T03:00:12.134Z,49.73
2022-10-23T03:03:18.468Z,49.99
2022-10-23T03:06:21.629Z,49.88
2022-10-23T03:09:24.553Z,49.84
2022-10-23T03:12:27.339Z,49.77
2022-10-23T03:15:30.130Z,49.72
2022-10-23T03:18:34.288Z,49.97
2022-10-23T03:21:37.043Z,49.91
2022-10-23T03:24:39.797Z,49.86
2022-10-23T03:27:42.675Z,49.79
2022-10-23T03:30:45.367Z,49.71
2022-10-23T03:33:49.540Z,49.64
2022-10-23T03:36:52.284Z,49.65
2022-10-23T03:39:55.086Z,49.77
2022-10-23T03:42:57.879Z,49.71
2022-10-23T03:46:01.256Z,49.70
2022-10-23T03:49:05.866Z,49.70
2022-10-23T03:52:09.207Z,49.70
2022-10-23T03:55:12.208Z,49.62
2022-10-23T03:58:15.011Z,49.67
2022-10-23T04:01:17.844Z,49.65
2022-10-23T04:04:22.042Z,49.67
2022-10-23T04:07:24.785Z,49.73
2022-10-23T04:10:27.542Z,49.71
2022-10-23T04:13:30.360Z,49.72
2022-10-23T04:16:33.153Z,49.60
2022-10-23T04:19:37.330Z,49.69
2022-10-23T04:22:40.317Z,49.63
2022-10-23T04:25:43.363Z,49.59
2022-10-23T04:28:46.136Z,49.49
2022-10-23T04:31:48.896Z,49.63
2022-10-23T04:34:53.086Z,49.62
2022-10-23T04:37:55.829Z,49.46
2022-10-23T04:40:58.626Z,49.61
2022-10-23T04:44:02.454Z,49.63
2022-10-23T04:47:05.265Z,49.38
2022-10-23T04:50:09.533Z,49.64
2022-10-23T04:53:12.312Z,49.56
2022-10-23T04:56:15.879Z,49.58
2022-10-23T04:59:18.587Z,49.57
2022-10-23T05:02:21.417Z,49.50
2022-10-23T05:05:25.548Z,49.50
2022-10-23T05:08:28.291Z,49.49
2022-10-23T05:11:31.085Z,49.47
2022-10-23T05:14:33.863Z,49.43
2022-10-23T05:17:38.001Z,49.33
2022-10-23T05:20:43.170Z,49.48
2022-10-23T05:23:46.819Z,49.44
2022-10-23T05:26:51.708Z,49.53
2022-10-23T05:29:54.472Z,49.78
2022-10-23T05:32:57.280Z,49.61
2022-10-23T05:36:01.922Z,49.66
2022-10-23T05:39:05.587Z,49.90
2022-10-23T05:42:08.622Z,50.05
2022-10-23T05:45:11.849Z,50.20
2022-10-23T05:48:29.825Z,50.10
2022-10-23T05:51:39.613Z,50.15
2022-10-23T05:54:43.383Z,50.19
2022-10-23T05:57:46.470Z,50.34
2022-10-23T06:00:49.510Z,50.21
2022-10-23T06:03:52.298Z,50.10
2022-10-23T06:06:56.454Z,49.99
2022-10-23T06:09:59.277Z,50.22
2022-10-23T06:13:02.029Z,50.10
2022-10-23T06:16:11.109Z,50.02
2022-10-23T06:19:14.081Z,49.98
2022-10-23T06:25:25.882Z,49.95
2022-10-23T06:28:28.967Z,49.89
2022-10-23T06:31:31.837Z,49.96
2022-10-23T06:34:34.884Z,49.68
2022-10-23T06:37:39.831Z,49.75
2022-10-23T06:40:42.644Z,49.80
2022-10-23T06:43:45.804Z,49.94
2022-10-23T06:46:48.555Z,49.81
2022-10-23T06:49:51.222Z,49.95
2022-10-23T06:52:56.347Z,49.90
2022-10-23T06:56:00.643Z,49.90
2022-10-23T06:59:03.487Z,49.80
2022-10-23T07:02:08.247Z,49.74
2022-10-23T07:05:13.547Z,49.94
2022-10-23T07:08:18.753Z,49.93
2022-10-23T07:11:21.527Z,49.83
2022-10-23T07:14:24.316Z,49.82
2022-10-23T07:17:27.189Z,49.87
2022-10-23T07:20:30.237Z,49.74
2022-10-23T07:23:34.556Z,49.90
2022-10-23T07:26:37.467Z,49.90
2022-10-23T07:29:40.350Z,49.89
2022-10-23T07:32:43.454Z,49.78
2022-10-23T07:35:47.457Z,49.82
2022-10-23T07:38:51.824Z,49.55
2022-10-23T07:41:54.654Z,49.83
2022-10-23T07:44:57.555Z,50.13
2022-10-23T07:48:00.378Z,50.24
2022-10-23T07:51:08.248Z,50.66
2022-10-23T07:54:13.227Z,50.63
2022-10-23T07:57:16.551Z,50.77
2022-10-23T08:00:19.512Z,51.23
2022-10-23T08:03:22.392Z,51.71
2022-10-23T08:06:25.335Z,51.79
2022-10-23T08:09:29.539Z,51.83
2022-10-23T08:12:32.478Z,51.11
2022-10-23T08:15:35.268Z,51.26
2022-10-23T08:18:41.232Z,51.15
2022-10-23T08:21:44.090Z,51.42
2022-10-23T08:24:48.305Z,51.57
2022-10-23T08:27:52.211Z,51.05
2022-10-23T08:30:55.479Z,51.13
2022-10-23T08:33:58.456Z,51.40
2022-10-23T08:37:01.382Z,51.54
2022-10-23T08:40:05.970Z,51.27
2022-10-23T08:43:14.558Z,51.42
2022-10-23T08:46:19.243Z,51.12
2022-10-23T08:49:27.510Z,50.93
2022-10-23T08:52:33.270Z,51.50
2022-10-23T08:55:39.398Z,50.91
2022-10-23T08:58:46.270Z,51.48
2022-10-23T09:01:52.408Z,51.33
2022-10-23T09:04:56.591Z,51.22
2022-10-23T09:08:08.857Z,51.70
2022-10-23T09:11:17.488Z,51.58
2022-10-23T09:14:36.035Z,52.22
2022-10-23T09:17:41.315Z,52.30
2022-10-23T09:20:45.851Z,52.32
2022-10-23T09:23:48.996Z,52.39
2022-10-23T09:26:54.333Z,52.62
2022-10-23T09:29:59.425Z,52.69
2022-10-23T09:33:02.723Z,53.38
2022-10-23T09:36:07.227Z,53.21
2022-10-23T09:39:22.120Z,52.89
2022-10-23T09:42:27.249Z,53.58
2022-10-23T09:45:31.489Z,53.69
2022-10-23T09:48:35.206Z,54.06
2022-10-23T09:51:41.883Z,54.13
2022-10-23T09:54:46.121Z,53.88
2022-10-23T09:57:50.708Z,53.51
2022-10-23T10:00:55.882Z,53.39
2022-10-23T10:03:58.685Z,53.30
2022-10-23T10:07:02.897Z,53.30
2022-10-23T10:10:08.850Z,53.23
2022-10-23T10:13:23.673Z,53.32
2022-10-23T10:16:33.892Z,53.20
2022-10-23T10:19:45.287Z,53.14
2022-10-23T10:22:51.302Z,53.10
2022-10-23T10:26:00.618Z,52.77
2022-10-23T10:29:21.346Z,52.72
2022-10-23T10:32:32.251Z,52.79
2022-10-23T10:35:39.131Z,52.71
2022-10-23T10:38:45.890Z,52.90
2022-10-23T10:41:54.357Z,53.04
2022-10-23T10:45:12.941Z,52.88
2022-10-23T10:48:34.153Z,52.70
2022-10-23T10:51:40.144Z,52.51
2022-10-23T10:54:50.448Z,53.09
2022-10-23T10:57:59.864Z,52.40
2022-10-23T11:01:12.197Z,52.27
2022-10-23T11:04:19.470Z,52.55
2022-10-23T11:07:25.769Z,53.12
2022-10-23T11:10:29.445Z,53.58
2022-10-23T11:13:35.627Z,53.47
2022-10-23T11:16:42.443Z,53.61
2022-10-23T11:19:48.588Z,53.83
2022-10-23T11:22:55.339Z,53.27
2022-10-23T11:26:03.922Z,52.45
2022-10-23T11:29:28.059Z,52.52
2022-10-23T11:32:43.895Z,52.51
2022-10-23T11:35:52.801Z,52.30
2022-10-23T11:38:59.312Z,52.30
2022-10-23T11:42:13.664Z,52.71
2022-10-23T11:45:29.993Z,52.58
2022-10-23T11:48:45.046Z,52.79
2022-10-23T11:51:50.616Z,53.21
2022-10-23T11:55:02.042Z,53.51
2022-10-23T11:58:22.459Z,53.62
2022-10-23T12:01:37.504Z,53.57
2022-10-23T12:04:47.626Z,53.53
2022-10-23T12:07:55.719Z,53.42
2022-10-23T12:10:58.764Z,53.77
2022-10-23T12:14:01.733Z,53.44
2022-10-23T12:17:20.112Z,53.27
2022-10-23T12:20:28.336Z,53.25
2022-10-23T12:23:47.380Z,52.98
2022-10-23T12:27:09.559Z,52.68
2022-10-23T12:30:23.002Z,52.38
2022-10-23T12:33:29.655Z,53.07
2022-10-23T12:36:41.385Z,52.85
2022-10-23T12:39:44.228Z,52.51
2022-10-23T12:42:51.450Z,52.80
2022-10-23T12:45:55.703Z,52.89
2022-10-23T12:48:59.368Z,52.51
2022-10-23T12:52:06.147Z,52.84
2022-10-23T12:55:14.789Z,52.73
2022-10-23T12:58:21.180Z,52.71
2022-10-23T13:01:25.364Z,52.04
2022-10-23T13:04:30.739Z,51.73
2022-10-23T13:07:36.898Z,52.33
2022-10-23T13:10:40.064Z,52.01
2022-10-23T13:13:43.110Z,52.25
2022-10-23T13:16:46.211Z,52.29
2022-10-23T13:19:49.185Z,52.08
2022-10-23T13:22:59.433Z,52.18
2022-10-23T13:26:04.561Z,51.68
2022-10-23T13:29:18.713Z,51.79
2022-10-23T13:32:24.582Z,51.73
2022-10-23T13:35:27.830Z,51.57
2022-10-23T13:38:34.538Z,51.51
2022-10-23T13:41:39.384Z,51.67
2022-10-23T13:44:42.496Z,51.48
2022-10-23T13:47:45.674Z,51.83
2022-10-23T13:50:48.659Z,51.30
2022-10-23T13:53:53.113Z,51.13
2022-10-23T13:56:56.284Z,51.17
2022-10-23T13:59:59.160Z,51.08
2022-10-23T14:03:02.011Z,51.09
2022-10-23T14:06:05.045Z,51.22
2022-10-23T14:09:10.326Z,50.95
2022-10-23T14:12:13.744Z,51.08
2022-10-23T14:15:16.917Z,50.95
2022-10-23T14:18:20.025Z,51.07
2022-10-23T14:21:23.460Z,50.96
2022-10-23T14:24:27.847Z,50.92
2022-10-23T14:27:31.191Z,51.07
2022-10-23T14:30:34.158Z,51.06
2022-10-23T14:33:37.211Z,51.24
2022-10-23T14:36:49.706Z,51.20
2022-10-23T14:39:58.383Z,51.12
2022-10-23T14:43:01.206Z,51.24
2022-10-23T14:46:09.209Z,51.24
2022-10-23T14:49:12.295Z,51.06
2022-10-23T14:52:15.170Z,50.73
2022-10-23T14:55:19.521Z,51.54
2022-10-23T14:58:24.352Z,51.63
2022-10-23T15:01:29.922Z,51.79
2022-10-23T15:04:33.090Z,51.85
2022-10-23T15:07:36.180Z,52.06
2022-10-23T15:10:41.471Z,52.05
2022-10-23T15:13:44.739Z,52.05
2022-10-23T15:16:49.829Z,52.08
2022-10-23T15:19:53.008Z,52.08
2022-10-23T15:22:57.043Z,52.18
2022-10-23T15:26:02.744Z,52.01
2022-10-23T15:29:05.672Z,51.77
2022-10-23T15:32:10.502Z,51.85
2022-10-23T15:35:15.527Z,51.97
2022-10-23T15:38:19.796Z,52.05
2022-10-23T15:41:30.451Z,52.05
2022-10-23T15:44:39.180Z,52.08
2022-10-23T15:47:43.341Z,51.83
2022-10-23T15:50:46.613Z,52.05
2022-10-23T15:53:49.765Z,52.04
2022-10-23T15:57:10.908Z,51.99
2022-10-23T16:00:18.319Z,51.83
2022-10-23T16:03:27.872Z,51.95
2022-10-23T16:06:31.713Z,51.98
2022-10-23T16:09:37.395Z,51.48
2022-10-23T16:25:13.401Z,51.94
2022-10-23T16:28:23.268Z,52.30
2022-10-23T16:31:26.733Z,52.46
2022-10-23T16:34:34.536Z,52.29
2022-10-23T16:37:40.061Z,52.54
2022-10-23T16:40:51.372Z,52.00
2022-10-23T16:43:54.221Z,52.46
2022-10-23T16:46:57.430Z,52.53
2022-10-23T16:50:05.681Z,52.48
2022-10-23T16:53:09.887Z,52.10
2022-10-23T16:56:15.826Z,52.07
2022-10-23T16:59:19.002Z,52.45
2022-10-23T17:02:25.546Z,52.62
2022-10-23T17:05:29.837Z,52.98
2022-10-23T17:08:33.572Z,53.00
2022-10-23T17:11:40.178Z,52.94
2022-10-23T17:14:43.822Z,53.16
2022-10-23T17:17:49.465Z,53.07
2022-10-23T17:20:58.782Z,53.00
2022-10-23T17:27:21.742Z,52.66
2022-10-23T17:34:46.686Z,52.75
2022-10-23T17:37:50.551Z,53.02
2022-10-23T17:40:53.328Z,52.85
2022-10-23T17:43:58.685Z,52.73
2022-10-23T17:47:01.468Z,52.68
2022-10-23T17:50:04.273Z,52.68
2022-10-23T17:53:07.086Z,52.58
2022-10-23T17:56:10.872Z,52.61
2022-10-23T17:59:16.341Z,52.61
2022-10-23T18:02:19.260Z,52.57
2022-10-23T18:05:23.354Z,52.58
2022-10-23T18:08:25.985Z,52.42
2022-10-23T18:11:30.477Z,52.41
2022-10-23T18:14:37.563Z,52.37
2022-10-23T18:17:40.520Z,52.39
2022-10-23T18:20:43.639Z,52.37
2022-10-23T18:23:46.773Z,52.34
2022-10-23T18:26:49.698Z,52.28
2022-10-23T18:29:54.211Z,52.28
2022-10-23T18:32:58.323Z,52.27
2022-10-23T18:36:01.124Z,52.21
2022-10-23T18:39:05.787Z,52.33
2022-10-23T18:42:08.628Z,52.19
2022-10-23T18:45:15.239Z,52.41
2022-10-23T18:48:17.883Z,52.29
2022-10-23T18:51:24.968Z,52.25
2022-10-23T18:54:27.809Z,52.19
2022-10-23T18:57:30.704Z,52.27
2022-10-23T19:00:34.894Z,52.16
2022-10-23T19:03:37.660Z,52.29
2022-10-23T19:06:40.458Z,52.03
2022-10-23T19:09:43.651Z,52.24
2022-10-23T19:12:47.320Z,52.11
2022-10-23T19:15:51.563Z,51.99
2022-10-23T19:18:55.796Z,51.85
2022-10-23T19:21:58.910Z,51.74
2022-10-23T19:25:04.813Z,51.99
2022-10-23T19:28:07.656Z,51.82
2022-10-23T19:31:12.462Z,51.70
2022-10-23T19:34:15.199Z,51.57
2022-10-23T19:37:17.953Z,52.23
2022-10-23T19:40:24.200Z,52.46
2022-10-23T19:43:29.230Z,52.58
2022-10-23T19:46:35.800Z,52.52
2022-10-23T19:49:38.681Z,52.39
2022-10-23T19:52:42.274Z,52.36
2022-10-23T19:55:45.079Z,51.97
2022-10-23T19:58:47.865Z,51.67
2022-10-23T20:01:52.051Z,51.93
2022-10-23T20:05:13.527Z,52.12
2022-10-23T20:08:16.423Z,52.26
2022-10-23T20:11:20.881Z,52.14
2022-10-23T20:14:23.674Z,52.01
2022-10-23T20:17:27.901Z,52.22
2022-10-23T20:20:30.627Z,52.28
2022-10-23T20:23:33.436Z,52.26
2022-10-23T20:26:36.971Z,52.22
2022-10-23T20:29:39.839Z,51.93
2022-10-23T20:32:44.260Z,52.01
2022-10-23T20:35:47.126Z,51.98
2022-10-23T20:38:49.985Z,51.81
2022-10-23T20:50:08.602Z,51.79
2022-10-23T20:53:11.269Z,51.79
2022-10-23T20:56:15.072Z,51.64
2022-10-23T20:59:19.004Z,51.60
2022-10-23T21:02:21.765Z,51.61
2022-10-23T21:05:25.821Z,51.68
2022-10-23T21:08:28.478Z,51.55
2022-10-23T21:11:31.619Z,51.59
2022-10-23T21:14:34.352Z,51.46
2022-10-23T21:17:39.054Z,51.39
2022-10-23T21:20:43.154Z,51.56
2022-10-23T21:23:46.516Z,51.55
2022-10-23T21:26:49.178Z,51.57
2022-10-23T21:29:51.863Z,51.62
2022-10-23T21:32:54.621Z,51.49
2022-10-23T21:36:12.798Z,51.51
2022-10-23T21:39:16.559Z,51.49
2022-10-23T21:42:19.364Z,51.50
2022-10-23T21:45:22.151Z,51.44
2022-10-23T21:48:24.864Z,51.67
2022-10-23T21:51:30.287Z,51.66
2022-10-23T21:54:33.038Z,51.67
2022-10-23T21:57:35.694Z,51.65
2022-10-23T22:00:38.333Z,51.73
2022-10-23T22:03:41.067Z,51.80
2022-10-23T22:06:45.548Z,51.66
2022-10-23T22:09:48.232Z,51.87
2022-10-23T22:12:50.952Z,51.69
2022-10-23T22:15:53.607Z,51.80
2022-10-23T22:18:56.334Z,51.75
2022-10-23T22:22:00.407Z,51.80
2022-10-23T22:25:03.137Z,51.68
2022-10-23T22:28:05.838Z,51.85
2022-10-23T22:31:15.219Z,51.85
2022-10-23T22:34:27.193Z,51.76
2022-10-23T22:37:38.172Z,51.74
2022-10-23T22:40:45.648Z,51.78
2022-10-23T22:43:49.235Z,51.85
2022-10-23T22:46:51.940Z,51.73
2022-10-23T22:49:54.622Z,51.82
2022-10-23T22:52:58.621Z,51.84
2022-10-23T22:56:01.356Z,51.79
2022-10-23T22:59:04.118Z,51.89
2022-10-23T23:02:06.774Z,51.88
2022-10-23T23:05:11.118Z,51.83
2022-10-23T23:08:15.658Z,51.93
2022-10-23T23:11:22.197Z,51.82
2022-10-23T23:14:24.875Z,51.78
2022-10-23T23:17:27.560Z,51.72
2022-10-23T23:20:30.271Z,51.67
2022-10-23T23:23:35.555Z,51.68
2022-10-23T23:26:38.340Z,51.77
2022-10-23T23:29:41.052Z,51.85
2022-10-23T23:32:43.974Z,51.67
2022-10-23T23:35:47.835Z,51.80
2022-10-23T23:38:51.941Z,51.63
2022-10-23T23:41:54.707Z,51.71
2022-10-23T23:45:10.098Z,51.59
2022-10-23T23:48:16.127Z,51.59
2022-10-23T23:51:20.029Z,51.62
2022-10-23T23:54:24.228Z,51.44
2022-10-23T23:57:27.088Z,51.49
